createdAt,value
2017-11-26T00:02:01.514Z,6.10
2017-11-26T00:04:28.981Z,7.00
2017-11-26T00:06:57.186Z,6.55
2017-11-26T00:09:24.632Z,6.90
2017-11-26T00:11:52.100Z,6.00
2017-11-26T00:14:19.581Z,6.15
2017-11-26T00:16:47.025Z,7.12
2017-11-26T00:19:14.442Z,6.25
2017-11-26T00:21:42.657Z,5.95
2017-11-26T00:24:10.112Z,5.60
2017-11-26T00:26:38.332Z,5.65
2017-11-26T00:29:05.904Z,6.30
2017-11-26T00:31:33.354Z,5.45
2017-11-26T00:34:01.598Z,5.72
2017-11-26T00:36:29.066Z,4.72
2017-11-26T00:38:56.492Z,4.85
2017-11-26T00:41:24.710Z,5.35
2017-11-26T00:43:52.136Z,4.80
2017-11-26T00:46:19.590Z,5.10
2017-11-26T00:48:47.042Z,4.80
2017-11-26T00:51:14.505Z,4.95
2017-11-26T00:53:41.934Z,5.00
2017-11-26T00:56:09.901Z,4.40
2017-11-26T00:58:37.364Z,4.53
2017-11-26T01:01:05.565Z,4.85
2017-11-26T01:03:33.040Z,5.45
2017-11-26T01:06:00.507Z,4.15
2017-11-26T01:08:28.073Z,5.87
2017-11-26T01:10:55.543Z,5.40
2017-11-26T01:13:23.009Z,5.47
2017-11-26T01:15:50.478Z,6.05
2017-11-26T01:18:18.686Z,6.50
2017-11-26T01:20:46.154Z,5.03
2017-11-26T01:23:13.586Z,5.32
2017-11-26T01:25:41.013Z,6.25
2017-11-26T01:28:08.476Z,5.53
2017-11-26T01:30:35.899Z,6.15
2017-11-26T01:33:03.663Z,5.20
2017-11-26T01:35:31.088Z,6.50
2017-11-26T01:37:59.297Z,6.30
2017-11-26T01:40:26.746Z,6.03
2017-11-26T01:42:55.204Z,6.32
2017-11-26T01:45:22.638Z,6.25
2017-11-26T01:47:50.185Z,6.15
2017-11-26T01:50:17.613Z,6.18
2017-11-26T01:52:45.522Z,7.70
2017-11-26T01:55:12.954Z,7.43
2017-11-26T01:57:40.414Z,6.60
2017-11-26T02:00:07.869Z,6.15
2017-11-26T02:02:36.107Z,6.43
2017-11-26T02:05:03.544Z,6.75
2017-11-26T02:07:31.782Z,6.37
2017-11-26T02:10:00.046Z,6.93
2017-11-26T02:12:27.526Z,6.78
2017-11-26T02:14:58.996Z,6.28
2017-11-26T02:17:26.462Z,6.40
2017-11-26T02:19:53.912Z,6.15
2017-11-26T02:22:22.143Z,7.97
2017-11-26T02:24:49.604Z,6.43
2017-11-26T02:27:17.063Z,6.15
2017-11-26T02:29:45.278Z,6.57
2017-11-26T02:32:25.346Z,6.12
2017-11-26T02:35:04.513Z,5.80
2017-11-26T02:37:32.031Z,5.45
2017-11-26T02:40:00.124Z,7.78
2017-11-26T02:42:28.331Z,6.45
2017-11-26T02:44:55.789Z,7.12
2017-11-26T02:47:23.990Z,6.28
2017-11-26T02:49:52.218Z,6.15
2017-11-26T02:52:19.669Z,5.93
2017-11-26T02:54:47.152Z,6.43
2017-11-26T02:57:15.166Z,6.20
2017-11-26T02:59:42.624Z,5.45
2017-11-26T03:02:10.084Z,5.57
2017-11-26T03:04:37.539Z,5.70
2017-11-26T03:07:10.155Z,4.68
2017-11-26T03:09:38.148Z,5.37
2017-11-26T03:12:05.623Z,4.90
2017-11-26T03:14:33.064Z,4.30
2017-11-26T03:17:01.299Z,5.37
2017-11-26T03:19:28.753Z,4.07
2017-11-26T03:21:56.330Z,5.00
2017-11-26T03:24:23.766Z,4.90
2017-11-26T03:26:51.226Z,4.72
2017-11-26T03:29:18.802Z,3.78
2017-11-26T03:31:46.328Z,4.50
2017-11-26T03:34:14.413Z,3.90
2017-11-26T03:36:41.870Z,4.75
2017-11-26T03:39:10.100Z,4.10
2017-11-26T03:41:37.642Z,4.65
2017-11-26T03:44:05.871Z,4.15
2017-11-26T03:46:33.888Z,4.28
2017-11-26T03:49:01.341Z,4.35
2017-11-26T03:51:28.807Z,4.53
2017-11-26T03:53:56.905Z,3.87
2017-11-26T03:56:24.344Z,4.87
2017-11-26T03:58:52.850Z,5.20
2017-11-26T04:01:21.062Z,4.75
2017-11-26T04:03:48.490Z,4.60
2017-11-26T04:06:15.965Z,4.60
2017-11-26T04:08:43.988Z,4.12
2017-11-26T04:11:11.436Z,4.90
2017-11-26T04:13:39.693Z,4.25
2017-11-26T04:16:07.144Z,5.12
2017-11-26T04:18:34.580Z,4.18
2017-11-26T04:21:02.796Z,3.90
2017-11-26T04:23:30.235Z,4.82
2017-11-26T04:25:58.228Z,4.78
2017-11-26T04:28:26.452Z,4.32
2017-11-26T04:30:53.885Z,3.47
2017-11-26T04:33:21.361Z,4.70
2017-11-26T04:35:48.807Z,3.60
2017-11-26T04:38:16.329Z,4.00
2017-11-26T04:40:44.534Z,5.45
2017-11-26T04:43:11.976Z,3.42
2017-11-26T04:45:39.413Z,4.12
2017-11-26T04:48:06.876Z,4.43
2017-11-26T04:50:34.316Z,3.58
2017-11-26T04:53:02.566Z,3.80
2017-11-26T04:55:30.162Z,4.37
2017-11-26T04:57:57.608Z,5.07
2017-11-26T05:00:26.075Z,4.37
2017-11-26T05:02:53.512Z,4.45
2017-11-26T05:05:20.992Z,4.78
2017-11-26T05:07:48.452Z,4.55
2017-11-26T05:10:15.912Z,4.68
2017-11-26T05:12:43.353Z,4.40
2017-11-26T05:15:10.814Z,4.60
2017-11-26T05:17:39.025Z,4.68
2017-11-26T05:20:06.496Z,4.18
2017-11-26T05:22:33.993Z,4.40
2017-11-26T05:25:01.441Z,4.78
2017-11-26T05:27:28.872Z,4.40
2017-11-26T05:29:56.325Z,4.32
2017-11-26T05:32:23.790Z,4.60
2017-11-26T05:34:51.241Z,4.32
2017-11-26T05:37:18.745Z,4.68
2017-11-26T05:39:46.251Z,5.32
2017-11-26T05:42:14.384Z,4.90
2017-11-26T05:44:45.656Z,5.12
2017-11-26T05:47:13.100Z,4.40
2017-11-26T05:49:41.344Z,4.85
2017-11-26T05:52:09.054Z,4.53
2017-11-26T05:54:36.489Z,4.87
2017-11-26T05:57:03.949Z,4.80
2017-11-26T05:59:31.391Z,4.72
2017-11-26T06:01:59.624Z,4.55
2017-11-26T06:04:27.089Z,5.10
2017-11-26T06:06:54.554Z,4.87
2017-11-26T06:09:22.012Z,4.85
2017-11-26T06:11:50.253Z,5.15
2017-11-26T06:14:17.699Z,4.28
2017-11-26T06:16:45.376Z,4.47
2017-11-26T06:19:12.852Z,3.70
2017-11-26T06:21:40.274Z,4.20
2017-11-26T06:24:07.724Z,4.53
2017-11-26T06:26:35.149Z,5.10
2017-11-26T06:29:03.384Z,4.97
2017-11-26T06:31:30.838Z,3.85
2017-11-26T06:33:58.290Z,4.10
2017-11-26T06:36:26.486Z,4.32
2017-11-26T06:38:54.753Z,4.85
2017-11-26T06:41:22.255Z,4.10
2017-11-26T06:43:49.677Z,5.43
2017-11-26T06:46:17.136Z,4.93
2017-11-26T06:48:44.586Z,4.30
2017-11-26T06:51:12.837Z,5.20
2017-11-26T06:53:40.290Z,5.00
2017-11-26T06:56:07.814Z,4.45
2017-11-26T06:58:36.053Z,3.90
2017-11-26T07:01:03.498Z,4.05
2017-11-26T07:03:31.708Z,4.28
2017-11-26T07:05:59.170Z,4.62
2017-11-26T07:08:26.698Z,4.78
2017-11-26T07:10:54.153Z,4.53
2017-11-26T07:13:21.577Z,4.62
2017-11-26T07:15:49.820Z,4.53
2017-11-26T07:18:17.287Z,4.22
2017-11-26T07:20:44.798Z,4.72
2017-11-26T07:23:12.960Z,5.03
2017-11-26T07:25:40.390Z,5.87
2017-11-26T07:28:08.609Z,5.12
2017-11-26T07:30:36.060Z,4.25
2017-11-26T07:33:03.533Z,4.80
2017-11-26T07:35:31.742Z,5.10
2017-11-26T07:37:59.169Z,4.53
2017-11-26T07:40:26.625Z,4.80
2017-11-26T07:42:54.076Z,5.30
2017-11-26T07:45:21.514Z,5.50
2017-11-26T07:47:49.751Z,4.25
2017-11-26T07:50:17.265Z,5.05
2017-11-26T07:52:44.701Z,5.37
2017-11-26T07:55:12.221Z,4.82
2017-11-26T07:57:39.689Z,4.65
2017-11-26T08:00:07.212Z,4.68
2017-11-26T08:02:34.645Z,4.55
2017-11-26T08:05:02.180Z,4.82
2017-11-26T08:07:31.588Z,5.15
2017-11-26T08:09:59.004Z,4.78
2017-11-26T08:12:26.475Z,4.45
2017-11-26T08:14:53.939Z,3.87
2017-11-26T08:17:21.407Z,4.25
2017-11-26T08:19:48.839Z,3.97
2017-11-26T08:22:16.324Z,4.32
2017-11-26T08:24:43.789Z,4.78
2017-11-26T08:27:11.262Z,4.70
2017-11-26T08:29:39.465Z,4.70
2017-11-26T08:32:06.930Z,4.00
2017-11-26T08:34:34.365Z,4.32
2017-11-26T08:37:01.824Z,4.70
2017-11-26T08:39:29.264Z,4.82
2017-11-26T08:41:56.722Z,4.25
2017-11-26T08:44:24.917Z,4.62
2017-11-26T08:46:53.175Z,4.50
2017-11-26T08:49:20.603Z,4.65
2017-11-26T08:51:48.208Z,3.78
2017-11-26T08:54:15.645Z,4.25
2017-11-26T08:56:43.099Z,3.62
2017-11-26T08:59:11.328Z,4.20
2017-11-26T09:01:38.779Z,4.30
2017-11-26T09:04:10.997Z,3.83
2017-11-26T09:06:44.055Z,4.03
2017-11-26T09:09:12.283Z,3.62
2017-11-26T09:11:39.753Z,3.55
2017-11-26T09:27:08.031Z,3.58
2017-11-26T09:29:35.502Z,4.62
2017-11-26T09:32:03.702Z,4.18
2017-11-26T09:34:31.169Z,4.87
2017-11-26T09:36:58.615Z,4.15
2017-11-26T09:39:26.076Z,4.28
2017-11-26T09:41:53.526Z,4.50
2017-11-26T09:44:21.746Z,4.12
2017-11-26T09:46:53.235Z,4.37
2017-11-26T09:49:20.733Z,4.53
2017-11-26T09:51:48.191Z,4.93
2017-11-26T09:54:15.653Z,5.10
2017-11-26T09:56:43.108Z,4.30
2017-11-26T09:59:10.585Z,4.53
2017-11-26T10:01:38.034Z,3.05
2017-11-26T10:04:06.260Z,4.72
2017-11-26T10:06:37.909Z,4.05
2017-11-26T10:09:06.133Z,4.87
2017-11-26T10:11:33.581Z,3.87
2017-11-26T10:14:02.296Z,3.75
2017-11-26T10:16:29.775Z,4.70
2017-11-26T10:18:57.362Z,4.97
2017-11-26T10:21:24.819Z,3.85
2017-11-26T10:23:52.287Z,3.47
2017-11-26T10:26:20.545Z,3.72
2017-11-26T10:28:48.017Z,3.40
2017-11-26T10:31:15.460Z,2.97
2017-11-26T10:33:42.925Z,4.12
2017-11-26T10:36:10.361Z,4.12
2017-11-26T10:38:38.627Z,3.35
2017-11-26T10:41:06.091Z,3.87
2017-11-26T10:43:33.606Z,4.10
2017-11-26T10:46:01.825Z,3.53
2017-11-26T10:48:29.286Z,3.25
2017-11-26T10:50:57.490Z,3.97
2017-11-26T10:53:25.005Z,3.15
2017-11-26T10:55:56.614Z,4.12
2017-11-26T10:58:24.849Z,3.53
2017-11-26T11:00:52.304Z,4.03
2017-11-26T11:03:19.741Z,4.20
2017-11-26T11:05:47.286Z,3.33
2017-11-26T11:08:14.807Z,3.55
2017-11-26T11:10:46.674Z,3.53
2017-11-26T11:13:14.239Z,3.50
2017-11-26T11:15:41.741Z,2.70
2017-11-26T11:18:09.176Z,4.20
2017-11-26T11:20:36.684Z,3.33
2017-11-26T11:23:05.518Z,3.45
2017-11-26T11:25:33.828Z,3.30
2017-11-26T11:28:01.276Z,4.35
2017-11-26T11:30:29.504Z,3.47
2017-11-26T11:32:56.958Z,3.75
2017-11-26T11:35:24.404Z,3.45
2017-11-26T11:37:51.894Z,3.40
2017-11-26T11:40:19.328Z,3.62
2017-11-26T11:42:46.784Z,3.20
2017-11-26T11:45:14.241Z,3.40
2017-11-26T11:47:41.699Z,2.90
2017-11-26T11:50:09.162Z,2.85
2017-11-26T11:52:37.471Z,3.12
2017-11-26T11:55:04.945Z,3.70
2017-11-26T11:57:32.386Z,2.80
2017-11-26T11:59:59.857Z,2.50
2017-11-26T12:02:27.393Z,2.58
2017-11-26T12:04:54.846Z,3.10
2017-11-26T12:07:22.285Z,2.85
2017-11-26T12:09:49.746Z,2.87
2017-11-26T12:12:17.198Z,3.25
2017-11-26T12:14:44.757Z,2.10
2017-11-26T12:17:12.170Z,3.42
2017-11-26T12:19:39.642Z,2.60
2017-11-26T12:22:07.098Z,2.40
2017-11-26T12:24:34.582Z,2.00
2017-11-26T12:27:02.162Z,2.55
2017-11-26T12:29:29.593Z,2.60
2017-11-26T12:31:57.020Z,2.97
2017-11-26T12:34:24.499Z,2.60
2017-11-26T12:36:51.965Z,3.30
2017-11-26T12:39:23.217Z,3.08
2017-11-26T12:41:50.680Z,2.37
2017-11-26T12:44:18.145Z,2.50
2017-11-26T12:46:45.602Z,2.72
2017-11-26T12:49:13.131Z,1.75
2017-11-26T12:51:40.646Z,2.40
2017-11-26T12:54:08.882Z,2.90
2017-11-26T12:56:36.902Z,2.42
2017-11-26T12:59:04.453Z,2.40
2017-11-26T13:01:31.904Z,2.75
2017-11-26T13:03:59.357Z,3.12
2017-11-26T13:06:27.593Z,2.20
2017-11-26T13:08:55.033Z,2.15
2017-11-26T13:11:22.518Z,2.45
2017-11-26T13:13:50.104Z,2.70
2017-11-26T13:16:17.556Z,2.90
2017-11-26T13:18:45.744Z,2.72
2017-11-26T13:21:14.068Z,3.20
2017-11-26T13:23:41.548Z,3.28
2017-11-26T13:26:09.886Z,3.20
2017-11-26T13:28:37.321Z,3.08
2017-11-26T13:31:04.824Z,3.10
2017-11-26T13:33:32.286Z,2.62
2017-11-26T13:35:59.774Z,2.90
2017-11-26T13:38:27.214Z,2.85
2017-11-26T13:40:55.555Z,2.65
2017-11-26T13:43:23.030Z,2.90
2017-11-26T13:45:50.506Z,3.05
2017-11-26T13:48:17.965Z,3.80
2017-11-26T13:50:45.413Z,2.70
2017-11-26T13:53:12.894Z,2.37
2017-11-26T13:55:40.414Z,3.65
2017-11-26T13:58:08.694Z,2.70
2017-11-26T14:00:36.135Z,2.62
2017-11-26T14:03:03.606Z,2.53
2017-11-26T14:05:32.014Z,2.58
2017-11-26T14:07:59.497Z,3.45
2017-11-26T14:10:26.946Z,2.83
2017-11-26T14:12:54.411Z,2.90
2017-11-26T14:15:21.855Z,3.10
2017-11-26T14:17:50.167Z,3.35
2017-11-26T14:20:17.590Z,3.30
2017-11-26T14:22:45.102Z,2.97
2017-11-26T14:25:13.290Z,2.85
2017-11-26T14:27:41.491Z,2.40
2017-11-26T14:30:08.948Z,2.62
2017-11-26T14:32:37.162Z,2.70
2017-11-26T14:35:04.631Z,2.70
2017-11-26T14:37:32.864Z,2.30
2017-11-26T14:40:00.300Z,2.95
2017-11-26T14:42:32.473Z,2.60
2017-11-26T14:44:59.934Z,2.30
2017-11-26T14:47:27.388Z,2.28
2017-11-26T14:49:54.828Z,2.65
2017-11-26T14:52:22.362Z,2.80
2017-11-26T14:54:50.608Z,2.97
2017-11-26T14:57:18.065Z,2.20
2017-11-26T15:05:05.488Z,3.22
2017-11-26T15:07:32.987Z,1.98
2017-11-26T15:10:00.423Z,2.85
2017-11-26T15:12:27.910Z,2.28
2017-11-26T15:14:55.358Z,2.55
2017-11-26T15:17:22.843Z,2.22
2017-11-26T15:19:50.301Z,3.05
2017-11-26T15:22:17.787Z,2.35
2017-11-26T15:24:46.264Z,3.22
2017-11-26T15:27:14.573Z,2.25
2017-11-26T15:29:42.112Z,3.08
2017-11-26T15:32:09.581Z,2.35
2017-11-26T15:34:37.017Z,3.05
2017-11-26T15:37:04.475Z,2.70
2017-11-26T15:39:31.938Z,2.75
2017-11-26T15:41:59.930Z,2.60
2017-11-26T15:44:29.114Z,2.37
2017-11-26T15:46:56.602Z,2.55
2017-11-26T15:49:24.878Z,2.45
2017-11-26T15:51:52.373Z,2.92
2017-11-26T15:54:20.584Z,2.25
2017-11-26T15:56:48.054Z,3.55
2017-11-26T15:59:15.609Z,2.65
2017-11-26T16:01:43.869Z,2.17
2017-11-26T16:04:11.983Z,3.17
2017-11-26T16:06:39.437Z,2.75
2017-11-26T16:09:06.889Z,3.55
2017-11-26T16:11:34.351Z,2.40
2017-11-26T16:14:01.791Z,2.50
2017-11-26T16:16:29.992Z,2.17
2017-11-26T16:18:58.243Z,2.47
2017-11-26T16:21:27.567Z,2.80
2017-11-26T16:23:56.003Z,2.62
2017-11-26T16:26:23.523Z,2.67
2017-11-26T16:28:50.999Z,2.72
2017-11-26T16:31:18.494Z,2.20
2017-11-26T16:33:46.661Z,2.15
2017-11-26T16:36:14.104Z,2.10
2017-11-26T16:38:41.560Z,2.40
2017-11-26T16:41:09.893Z,2.90
2017-11-26T16:43:37.349Z,2.75
2017-11-26T16:46:04.812Z,2.62
2017-11-26T16:48:33.017Z,2.72
2017-11-26T16:51:00.534Z,4.32
2017-11-26T16:53:27.981Z,2.65
2017-11-26T16:55:55.452Z,2.85
2017-11-26T16:58:22.922Z,3.08
2017-11-26T17:00:50.441Z,2.50
2017-11-26T17:03:18.008Z,3.40
2017-11-26T17:05:45.544Z,2.67
2017-11-26T17:08:13.020Z,2.37
2017-11-26T17:10:41.284Z,2.03
2017-11-26T17:13:08.737Z,3.30
2017-11-26T17:15:36.217Z,3.20
2017-11-26T17:18:03.653Z,2.95
2017-11-26T17:20:31.091Z,2.95
2017-11-26T17:22:59.312Z,4.10
2017-11-26T17:25:26.878Z,2.95
2017-11-26T17:27:54.408Z,2.78
2017-11-26T17:30:21.854Z,3.15
2017-11-26T17:32:49.376Z,2.90
2017-11-26T17:35:17.002Z,2.70
2017-11-26T17:37:44.428Z,3.70
2017-11-26T17:40:11.913Z,3.50
2017-11-26T17:42:40.157Z,3.37
2017-11-26T17:45:07.639Z,3.80
2017-11-26T17:47:35.148Z,4.00
2017-11-26T17:50:03.205Z,3.53
2017-11-26T17:52:30.746Z,3.00
2017-11-26T17:54:58.275Z,3.92
2017-11-26T17:57:25.750Z,3.70
2017-11-26T17:59:53.301Z,2.97
2017-11-26T18:02:21.063Z,3.25
2017-11-26T18:04:48.513Z,3.58
2017-11-26T18:07:16.830Z,3.55
2017-11-26T18:09:44.301Z,4.12
2017-11-26T18:12:11.785Z,3.75
2017-11-26T18:14:39.296Z,3.62
2017-11-26T18:17:06.807Z,4.50
2017-11-26T18:19:35.132Z,3.60
2017-11-26T18:22:02.604Z,3.67
2017-11-26T18:24:30.294Z,3.65
2017-11-26T18:26:57.740Z,3.78
2017-11-26T18:29:25.945Z,4.37
2017-11-26T18:31:53.428Z,4.50
2017-11-26T18:34:20.925Z,3.70
2017-11-26T18:36:48.716Z,3.67
2017-11-26T18:39:16.199Z,4.00
2017-11-26T18:41:43.792Z,4.40
2017-11-26T18:44:11.309Z,4.40
2017-11-26T18:46:38.786Z,4.05
2017-11-26T18:49:06.230Z,4.18
2017-11-26T18:51:34.503Z,4.30
2017-11-26T18:54:01.953Z,4.45
2017-11-26T18:56:29.423Z,4.85
2017-11-26T18:58:56.918Z,4.60
2017-11-26T19:01:24.375Z,5.18
2017-11-26T19:03:51.847Z,4.25
2017-11-26T19:06:19.294Z,4.75
2017-11-26T19:08:46.782Z,4.00
2017-11-26T19:11:14.333Z,4.82
2017-11-26T19:13:42.602Z,4.57
2017-11-26T19:16:10.084Z,4.37
2017-11-26T19:18:37.620Z,4.87
2017-11-26T19:21:05.108Z,4.40
2017-11-26T19:23:32.599Z,4.50
2017-11-26T19:26:00.122Z,4.90
2017-11-26T19:28:27.629Z,3.75
2017-11-26T19:30:55.179Z,4.15
2017-11-26T19:33:22.649Z,4.68
2017-11-26T19:35:50.699Z,5.22
2017-11-26T19:38:18.258Z,4.40
2017-11-26T19:40:45.732Z,5.15
2017-11-26T19:43:13.221Z,4.80
2017-11-26T19:45:40.682Z,4.65
2017-11-26T19:48:08.170Z,5.57
2017-11-26T19:50:35.701Z,5.10
2017-11-26T19:53:03.149Z,3.50
2017-11-26T19:55:31.378Z,4.40
2017-11-26T19:57:58.870Z,4.95
2017-11-26T20:00:26.354Z,4.72
2017-11-26T20:02:53.889Z,4.25
2017-11-26T20:05:21.433Z,4.03
2017-11-26T20:07:48.913Z,4.07
2017-11-26T20:10:17.993Z,4.65
2017-11-26T20:12:46.205Z,5.35
2017-11-26T20:15:13.681Z,3.67
2017-11-26T20:17:41.202Z,4.03
2017-11-26T20:20:08.708Z,3.85
2017-11-26T20:22:36.194Z,4.05
2017-11-26T20:25:03.717Z,3.75
2017-11-26T20:27:31.333Z,3.95
2017-11-26T20:29:58.820Z,3.87
2017-11-26T20:32:26.333Z,4.97
2017-11-26T20:47:48.893Z,3.78
2017-11-26T20:50:16.341Z,4.12
2017-11-26T20:52:43.814Z,3.17
2017-11-26T20:55:11.332Z,3.78
2017-11-26T21:00:14.532Z,3.95
2017-11-26T21:02:41.994Z,3.40
2017-11-26T21:05:09.540Z,4.22
2017-11-26T21:07:37.155Z,3.47
2017-11-26T21:10:04.896Z,3.35
2017-11-26T21:12:32.608Z,3.58
2017-11-26T21:15:01.549Z,3.85
2017-11-26T21:17:29.038Z,2.87
2017-11-26T21:19:56.678Z,3.10
2017-11-26T21:22:24.923Z,2.87
2017-11-26T21:24:52.490Z,3.20
2017-11-26T21:27:20.618Z,3.05
2017-11-26T21:29:48.872Z,2.83
2017-11-26T21:32:16.344Z,3.47
2017-11-26T21:34:44.561Z,3.10
2017-11-26T21:37:12.035Z,2.90
2017-11-26T21:39:39.506Z,3.58
2017-11-26T21:42:07.017Z,3.55
2017-11-26T21:44:36.222Z,3.67
2017-11-26T21:47:03.684Z,3.37
2017-11-26T21:49:31.126Z,3.80
2017-11-26T21:51:58.616Z,4.20
2017-11-26T21:54:26.067Z,3.75
2017-11-26T21:56:54.241Z,3.35
2017-11-26T21:59:21.690Z,4.30
2017-11-26T22:01:49.930Z,4.43
2017-11-26T22:04:17.381Z,4.40
2017-11-26T22:06:44.844Z,5.20
2017-11-26T22:09:12.302Z,3.83
2017-11-26T22:11:40.515Z,4.25
2017-11-26T22:14:07.997Z,3.80
2017-11-26T22:16:35.478Z,4.40
2017-11-26T22:19:02.961Z,4.12
2017-11-26T22:21:30.435Z,4.53
2017-11-26T22:23:57.892Z,4.37
2017-11-26T22:26:25.389Z,5.10
2017-11-26T22:28:52.901Z,4.53
2017-11-26T22:31:20.361Z,4.72
2017-11-26T22:33:47.819Z,5.00
2017-11-26T22:36:15.276Z,5.62
2017-11-26T22:38:42.723Z,5.65
2017-11-26T22:41:11.017Z,4.53
2017-11-26T22:43:39.233Z,5.37
2017-11-26T22:46:06.750Z,5.03
2017-11-26T22:48:34.203Z,5.43
2017-11-26T22:51:01.663Z,4.72
2017-11-26T22:53:29.179Z,5.40
2017-11-26T22:55:56.780Z,4.90
2017-11-26T22:58:25.035Z,5.60
2017-11-26T23:00:52.558Z,5.85
2017-11-26T23:03:20.773Z,5.18
2017-11-26T23:05:48.214Z,4.60
2017-11-26T23:08:16.445Z,4.97
2017-11-26T23:10:44.306Z,5.45
2017-11-26T23:13:11.797Z,5.80
2017-11-26T23:15:39.225Z,5.30
2017-11-26T23:18:06.689Z,5.60
2017-11-26T23:20:34.129Z,4.43
2017-11-26T23:23:01.586Z,4.57
2017-11-26T23:25:29.045Z,5.25
2017-11-26T23:27:57.647Z,4.75
2017-11-26T23:30:25.877Z,5.53
2017-11-26T23:32:53.321Z,4.78
2017-11-26T23:35:20.820Z,5.70
2017-11-26T23:37:48.277Z,5.22
2017-11-26T23:40:15.738Z,5.12
2017-11-26T23:42:43.952Z,6.03
2017-11-26T23:45:11.426Z,6.12
2017-11-26T23:47:38.908Z,5.80
2017-11-26T23:50:06.424Z,5.50
2017-11-26T23:52:33.911Z,5.22
2017-11-26T23:55:01.386Z,5.93
2017-11-26T23:57:28.844Z,5.05
2017-11-26T23:59:56.289Z,6.40
